Time;durP1;ratioP1;P1;durP2;ratioP2;P2;SDS_P1;SDS_P2;PMS_P1;PMS_P2;Temp;Humidity;BMP_temperature;BMP_pressure;BME280_temperature;BME280_humidity;BME280_pressure;Samples;Min_cycle;Max_cycle;Signal;HPM_P1;HPM_P2
2024/01/01 00:00:47;;;;;;;25.30;17.30;;;;;;;5.81;100.00;95563.30;109226;1281;137388;-86
2024/01/01 00:03:37;;;;;;;46.70;26.80;;;;;;;5.85;100.00;95565.28;108631;1280;22621;-87
2024/01/01 00:06:04;;;;;;;50.00;28.20;;;;;;;5.88;100.00;95561.10;109798;1282;138309;-87
2024/01/01 00:08:32;;;;;;;38.60;22.80;;;;;;;5.91;99.92;95560.86;108685;1282;22201;-88
2024/01/01 00:10:59;;;;;;;45.80;25.40;;;;;;;5.92;100.00;95554.55;109033;1274;159720;-87
2024/01/01 00:13:26;;;;;;;34.90;22.20;;;;;;;5.91;99.97;95547.77;108259;1282;25534;-87
2024/01/01 00:15:52;;;;;;;31.50;19.30;;;;;;;5.90;99.99;95541.13;108284;1281;23207;-87
2024/01/01 00:18:20;;;;;;;29.20;19.90;;;;;;;5.89;100.00;95536.09;108231;1280;138781;-86
2024/01/01 00:20:46;;;;;;;30.60;19.00;;;;;;;5.87;100.00;95535.06;108257;1283;22556;-86
2024/01/01 00:23:13;;;;;;;29.40;20.00;;;;;;;5.87;100.00;95533.42;108300;1282;138809;-86
2024/01/01 00:25:40;;;;;;;55.40;28.00;;;;;;;5.87;100.00;95530.38;108370;1275;23202;-86
2024/01/01 00:28:07;;;;;;;35.50;23.40;;;;;;;5.83;100.00;95531.61;108355;1281;22559;-86
2024/01/01 00:30:34;;;;;;;30.00;19.20;;;;;;;5.83;100.00;95531.06;108283;1282;138401;-86
2024/01/01 00:33:01;;;;;;;21.90;13.30;;;;;;;5.94;100.00;95524.17;108356;1275;25508;-86
2024/01/01 00:35:28;;;;;;;22.30;13.80;;;;;;;6.08;100.00;95520.39;108287;1276;138095;-86
2024/01/01 00:37:55;;;;;;;43.20;19.50;;;;;;;6.25;100.00;95517.77;108368;1281;22590;-86
2024/01/01 00:40:23;;;;;;;32.40;16.60;;;;;;;6.44;100.00;95520.05;108286;1275;22530;-85
2024/01/01 00:42:49;;;;;;;15.90;9.80;;;;;;;6.60;100.00;95519.41;108199;1275;138024;-86
2024/01/01 00:45:16;;;;;;;12.50;9.60;;;;;;;6.72;100.00;95525.05;108433;1276;22548;-86
2024/01/01 00:47:45;;;;;;;29.50;14.80;;;;;;;6.82;100.00;95535.11;108303;1280;137958;-87
2024/01/01 00:50:12;;;;;;;19.60;11.40;;;;;;;6.91;99.98;95547.75;108366;1276;22647;-87
2024/01/01 00:52:39;;;;;;;19.30;10.90;;;;;;;6.95;99.69;95555.50;108193;1283;138034;-88
2024/01/01 00:55:06;;;;;;;13.60;9.30;;;;;;;6.98;99.28;95553.90;108356;1283;23479;-87
2024/01/01 00:57:33;;;;;;;10.90;8.00;;;;;;;6.98;99.02;95554.41;108321;1280;22609;-87
2024/01/01 00:59:59;;;;;;;9.10;7.00;;;;;;;6.96;98.86;95549.66;108259;1276;137705;-87
2024/01/01 01:02:26;;;;;;;8.50;6.50;;;;;;;6.91;98.68;95540.48;108347;1282;22578;-87
2024/01/01 01:04:53;;;;;;;10.00;7.50;;;;;;;6.87;98.48;95538.29;108273;1283;137625;-87
2024/01/01 01:07:20;;;;;;;8.70;6.60;;;;;;;6.83;98.71;95541.67;108480;1277;25372;-87
2024/01/01 01:09:47;;;;;;;30.40;21.50;;;;;;;6.75;98.81;95547.89;108432;1277;22528;-87
2024/01/01 01:12:16;;;;;;;17.80;13.60;;;;;;;6.67;98.38;95549.16;108362;1276;137864;-88
2024/01/01 01:14:54;;;;;;;13.20;10.20;;;;;;;6.60;98.76;95554.08;108572;1280;22235;-88
2024/01/01 01:17:30;;;;;;;18.80;13.40;;;;;;;6.50;98.93;95549.97;109237;1277;136859;-87
2024/01/01 01:19:59;;;;;;;24.40;16.80;;;;;;;6.49;98.86;95544.05;108744;1278;22504;-87
2024/01/01 01:23:00;;;;;;;25.70;18.20;;;;;;;6.42;98.77;95537.30;108631;1283;22581;-86
2024/01/01 01:25:33;;;;;;;31.10;19.10;;;;;;;6.37;99.11;95530.99;108982;1282;25411;-88
2024/01/01 01:28:07;;;;;;;23.40;16.80;;;;;;;6.37;99.05;95532.27;108861;1283;22473;-86
2024/01/01 01:31:04;;;;;;;23.20;15.70;;;;;;;6.33;99.26;95537.60;109052;1282;137760;-87
2024/01/01 01:33:53;;;;;;;44.40;22.40;;;;;;;6.32;99.40;95544.60;109396;1282;22585;-87
2024/01/01 01:37:20;;;;;;;29.50;17.90;;;;;;;6.30;99.33;95543.27;109107;1283;137191;-87
2024/01/01 01:40:08;;;;;;;23.80;15.60;;;;;;;6.28;99.32;95547.25;109281;1283;22614;-87
2024/01/01 01:43:05;;;;;;;19.10;13.30;;;;;;;6.27;99.46;95538.98;109073;1275;137284;-87
2024/01/01 01:45:52;;;;;;;;;;;;;;;6.27;99.32;95534.05;109166;1276;25400;-87
2024/01/01 01:48:21;;;;;;;17.70;12.00;;;;;;;6.24;99.35;95527.83;109040;1283;122855;-87
2024/01/01 01:51:06;;;;;;;12.70;9.50;;;;;;;6.23;99.41;95524.04;109029;1276;22612;-87
2024/01/01 01:53:36;;;;;;;12.90;9.70;;;;;;;6.21;99.84;95527.67;109094;1283;137683;-87
2024/01/01 01:56:21;;;;;;;18.30;12.80;;;;;;;6.21;99.88;95525.43;109019;1276;22745;-87
2024/01/01 01:59:28;;;;;;;28.20;18.40;;;;;;;6.21;99.77;95526.11;108908;1282;138117;-87
2024/01/01 02:02:08;;;;;;;29.50;18.40;;;;;;;6.26;99.72;95541.22;109119;1283;22599;-87
2024/01/01 02:04:58;;;;;;;28.30;18.30;;;;;;;6.23;99.60;95546.70;108992;1283;138030;-87
2024/01/01 02:07:29;;;;;;;33.20;20.30;;;;;;;6.24;99.70;95555.01;109039;1273;22502;-87
2024/01/01 02:10:05;;;;;;;22.00;13.70;;;;;;;6.23;99.56;95565.91;109108;1277;22548;-87
2024/01/01 02:12:38;;;;;;;28.20;17.60;;;;;;;6.20;99.49;95567.69;108977;1283;137159;-87
2024/01/01 02:15:28;;;;;;;29.30;19.10;;;;;;;6.14;99.48;95576.49;109101;1283;22527;-87
2024/01/01 02:18:21;;;;;;;25.70;17.50;;;;;;;6.08;99.70;95587.09;108991;1280;138286;-87
2024/01/01 02:20:56;;;;;;;11.30;8.80;;;;;;;6.10;99.99;95590.21;109069;1268;22567;-87
2024/01/01 02:23:43;;;;;;;18.80;11.50;;;;;;;6.06;100.00;95588.76;108892;1283;138297;-87
2024/01/01 02:26:19;;;;;;;13.50;9.50;;;;;;;6.00;100.00;95593.54;109052;1277;22495;-87
2024/01/01 02:28:56;;;;;;;30.60;20.30;;;;;;;5.98;100.00;95599.59;109011;1282;136956;-87
2024/01/01 02:31:38;;;;;;;36.30;24.30;;;;;;;5.95;100.00;95599.17;108909;1275;22776;-88
2024/01/01 02:34:09;;;;;;;47.70;32.10;;;;;;;5.87;100.00;95604.59;109055;1283;22553;-88
2024/01/01 02:37:08;;;;;;;49.30;31.60;;;;;;;5.80;100.00;95604.73;109113;1283;136954;-87
2024/01/01 02:40:08;;;;;;;53.00;35.50;;;;;;;5.75;100.00;95606.11;109068;1276;22543;-87
2024/01/01 02:42:44;;;;;;;43.40;31.30;;;;;;;5.73;100.00;95609.56;109191;1282;138076;-87
2024/01/01 02:45:45;;;;;;;52.60;34.40;;;;;;;5.75;100.00;95609.69;108976;1280;22669;-87
2024/01/01 02:48:29;;;;;;;48.70;33.60;;;;;;;5.74;100.00;95604.27;108889;1283;138464;-87
2024/01/01 02:51:04;;;;;;;51.20;34.20;;;;;;;5.76;100.00;95609.77;109000;1283;22512;-87
2024/01/01 02:54:00;;;;;;;47.00;32.00;;;;;;;5.76;100.00;95605.95;108899;1280;138116;-86
2024/01/01 02:56:48;;;;;;;52.60;34.60;;;;;;;5.80;100.00;95601.08;108979;1283;22664;-86
2024/01/01 02:59:22;;;;;;;50.80;34.20;;;;;;;5.81;100.00;95596.46;108902;1275;138275;-86
2024/01/01 03:02:07;;;;;;;46.90;31.60;;;;;;;5.82;100.00;95596.13;109053;1283;22560;-86
2024/01/01 03:04:43;;;;;;;57.40;37.00;;;;;;;5.84;100.00;95592.34;109107;1281;22661;-87
2024/01/01 03:07:11;;;;;;;54.30;35.60;;;;;;;5.82;100.00;95580.51;109060;1275;22545;-87
2024/01/01 03:09:40;;;;;;;51.80;36.30;;;;;;;5.86;100.00;95579.95;109068;1283;24258;-86
2024/01/01 03:12:50;;;;;;;51.50;35.50;;;;;;;5.86;100.00;95570.51;108822;1274;138605;-87
2024/01/01 03:15:25;;;;;;;54.30;36.90;;;;;;;5.86;100.00;95569.67;109037;1275;22635;-86
2024/01/01 03:18:29;;;;;;;54.40;37.80;;;;;;;5.84;100.00;95570.84;108999;1282;137271;-86
2024/01/01 03:21:01;;;;;;;53.90;37.70;;;;;;;5.88;100.00;95566.14;109061;1283;22605;-86
2024/01/01 03:23:28;;;;;;;67.60;41.30;;;;;;;5.89;100.00;95558.08;108996;1276;138421;-86
2024/01/01 03:26:27;;;;;;;62.60;40.00;;;;;;;5.93;100.00;95570.09;109083;1277;22540;-86
2024/01/01 03:29:09;;;;;;;64.50;41.70;;;;;;;5.92;100.00;95563.99;108955;1282;137622;-86
2024/01/01 03:31:57;;;;;;;56.80;38.70;;;;;;;5.94;100.00;95563.36;109098;1283;23154;-86
2024/01/01 03:35:09;;;;;;;56.20;38.50;;;;;;;5.93;100.00;95578.30;108982;1276;138767;-86
2024/01/01 03:37:42;;;;;;;57.30;38.10;;;;;;;5.94;100.00;95578.60;109125;1282;22962;-87
2024/01/01 03:40:45;;;;;;;55.90;38.90;;;;;;;5.93;100.00;95565.61;109030;1277;24173;-86
2024/01/01 03:43:19;;;;;;;55.00;36.80;;;;;;;5.96;100.00;95562.16;109233;1280;22605;-86
2024/01/01 03:46:17;;;;;;;56.20;39.20;;;;;;;5.96;100.00;95559.84;109188;1283;22659;-86
2024/01/01 03:48:57;;;;;;;57.60;39.60;;;;;;;5.97;100.00;95553.25;109120;1282;22572;-86
2024/01/01 03:51:31;;;;;;;57.80;38.00;;;;;;;5.94;100.00;95551.39;109232;1282;23012;-86
2024/01/01 03:54:59;;;;;;;53.90;36.60;;;;;;;5.93;100.00;95547.67;109049;1275;138069;-86
2024/01/01 03:57:27;;;;;;;57.80;39.10;;;;;;;5.96;100.00;95546.18;109225;1275;22606;-86
2024/01/01 04:00:12;;;;;;;57.20;39.70;;;;;;;5.97;100.00;95544.02;109083;1282;138143;-86
2024/01/01 04:03:00;;;;;;;55.40;38.20;;;;;;;5.93;100.00;95544.23;109089;1281;22481;-86
2024/01/01 04:05:28;;;;;;;52.70;36.00;;;;;;;5.93;100.00;95543.88;108834;1283;138363;-85
2024/01/01 04:07:55;;;;;;;46.40;31.80;;;;;;;5.93;100.00;95541.30;108447;1275;23094;-86
2024/01/01 04:10:22;;;;;;;51.20;35.90;;;;;;;5.95;100.00;95541.48;108309;1281;22536;-87
2024/01/01 04:12:49;;;;;;;53.90;35.30;;;;;;;5.92;100.00;95536.95;108301;1279;138362;-86
2024/01/01 04:15:16;;;;;;;48.70;34.10;;;;;;;5.91;100.00;95535.75;108369;1275;22563;-86
2024/01/01 04:17:42;;;;;;;46.60;32.40;;;;;;;5.90;100.00;95530.69;108242;1277;138315;-86
2024/01/01 04:20:10;;;;;;;47.20;32.90;;;;;;;5.89;100.00;95528.53;108446;1275;22542;-86
2024/01/01 04:22:40;;;;;;;46.30;31.90;;;;;;;5.91;100.00;95525.88;108361;1282;22546;-86
2024/01/01 04:25:07;;;;;;;39.80;28.80;;;;;;;5.94;100.00;95519.60;108371;1277;138150;-86
2024/01/01 04:27:34;;;;;;;45.10;31.50;;;;;;;5.94;100.00;95516.00;108348;1277;22555;-86
2024/01/01 04:30:04;;;;;;;44.20;31.40;;;;;;;5.93;100.00;95514.48;108276;1281;138154;-86
2024/01/01 04:32:31;;;;;;;45.00;30.90;;;;;;;5.96;100.00;95513.94;108382;1280;22540;-87
2024/01/01 04:34:57;;;;;;;41.80;29.80;;;;;;;5.96;100.00;95514.69;108372;1282;138326;-87
2024/01/01 04:37:24;;;;;;;38.10;27.00;;;;;;;5.94;100.00;95511.96;108480;1282;22528;-87
2024/01/01 04:39:51;;;;;;;36.40;26.50;;;;;;;5.92;100.00;95507.41;108493;1281;25385;-87
2024/01/01 04:42:17;;;;;;;40.10;26.70;;;;;;;5.87;100.00;95508.04;108295;1281;138668;-87
2024/01/01 04:44:44;;;;;;;41.50;27.80;;;;;;;5.83;100.00;95508.44;108428;1280;25636;-86
2024/01/01 04:47:11;;;;;;;36.90;25.90;;;;;;;5.82;100.00;95504.97;108275;1275;138736;-87
2024/01/01 04:49:41;;;;;;;37.60;25.00;;;;;;;5.83;100.00;95507.09;108435;1282;22543;-87
2024/01/01 04:52:07;;;;;;;30.70;22.60;;;;;;;5.83;100.00;95497.09;108478;1282;22538;-87
2024/01/01 04:54:34;;;;;;;31.60;22.50;;;;;;;5.80;100.00;95492.77;108351;1282;138305;-87
2024/01/01 04:57:01;;;;;;;34.80;22.90;;;;;;;5.76;100.00;95486.05;108426;1283;23241;-87
2024/01/01 04:59:27;;;;;;;34.00;23.40;;;;;;;5.74;100.00;95487.84;108448;1277;138359;-87
2024/01/01 05:01:54;;;;;;;28.60;21.30;;;;;;;5.71;100.00;95476.30;108384;1277;22614;-87
2024/01/01 05:04:21;;;;;;;30.30;21.60;;;;;;;5.69;100.00;95474.95;108436;1277;22690;-87
2024/01/01 05:06:48;;;;;;;33.70;23.30;;;;;;;5.66;100.00;95474.77;108322;1278;138119;-87
2024/01/01 05:09:15;;;;;;;33.70;22.10;;;;;;;5.62;100.00;95471.23;108386;1279;22536;-88
2024/01/01 05:11:41;;;;;;;29.60;21.40;;;;;;;5.60;100.00;95471.19;108294;1272;138839;-87
2024/01/01 05:14:08;;;;;;;32.30;21.30;;;;;;;5.59;100.00;95477.68;108485;1275;22916;-87
2024/01/01 05:16:35;;;;;;;30.30;21.30;;;;;;;5.59;100.00;95483.48;108461;1283;22556;-87
2024/01/01 05:19:03;;;;;;;31.30;21.80;;;;;;;5.58;100.00;95482.73;108264;1282;138345;-88
2024/01/01 05:21:30;;;;;;;31.30;20.80;;;;;;;5.56;100.00;95484.83;108457;1275;24433;-87
2024/01/01 05:23:56;;;;;;;30.30;20.50;;;;;;;5.58;100.00;95485.71;108276;1281;138376;-87
2024/01/01 05:26:23;;;;;;;33.50;22.40;;;;;;;5.56;100.00;95486.72;108327;1282;22571;-87
2024/01/01 05:28:50;;;;;;;27.50;18.50;;;;;;;5.55;100.00;95488.12;108463;1273;24407;-88
2024/01/01 05:31:20;;;;;;;26.70;18.20;;;;;;;5.52;100.00;95492.11;108241;1282;138562;-88
2024/01/01 05:33:47;;;;;;;25.60;17.10;;;;;;;5.50;100.00;95492.73;108313;1282;23741;-87
2024/01/01 05:36:14;;;;;;;30.70;18.80;;;;;;;5.46;100.00;95502.11;108317;1282;138674;-88
2024/01/01 05:38:41;;;;;;;27.60;18.30;;;;;;;5.41;100.00;95516.86;108363;1283;22572;-87
2024/01/01 05:41:11;;;;;;;29.10;18.60;;;;;;;5.40;100.00;95525.77;108276;1277;138342;-88
2024/01/01 05:43:38;;;;;;;28.10;19.00;;;;;;;5.39;100.00;95528.76;108357;1275;23806;-86
2024/01/01 05:46:05;;;;;;;34.20;22.60;;;;;;;5.40;100.00;95530.79;108399;1282;22584;-85
2024/01/01 05:48:32;;;;;;;39.30;28.50;;;;;;;5.39;100.00;95532.21;108199;1277;138295;-86
2024/01/01 05:50:59;;;;;;;42.50;27.90;;;;;;;5.37;100.00;95535.79;108334;1280;25404;-86
2024/01/01 05:53:26;;;;;;;43.40;28.50;;;;;;;5.37;100.00;95544.88;108260;1282;138351;-85
2024/01/01 05:55:53;;;;;;;38.90;27.20;;;;;;;5.35;100.00;95548.16;108383;1275;24482;-86
2024/01/01 05:58:19;;;;;;;37.80;26.50;;;;;;;5.32;100.00;95541.77;108348;1275;22580;-86
2024/01/01 06:00:46;;;;;;;36.40;25.10;;;;;;;5.31;100.00;95536.46;108298;1278;138377;-86
2024/01/01 06:03:13;;;;;;;32.70;23.70;;;;;;;5.26;100.00;95534.69;108376;1281;22535;-86
2024/01/01 06:05:40;;;;;;;29.80;20.30;;;;;;;5.26;100.00;95530.51;108312;1283;138391;-86
2024/01/01 06:08:07;;;;;;;24.70;16.50;;;;;;;5.18;100.00;95537.48;108485;1278;22572;-86
2024/01/01 06:10:35;;;;;;;24.60;17.10;;;;;;;5.08;100.00;95538.77;108305;1283;22579;-86
2024/01/01 06:13:02;;;;;;;23.90;17.10;;;;;;;5.04;100.00;95544.68;108303;1283;138366;-86
2024/01/01 06:15:29;;;;;;;23.60;16.40;;;;;;;5.01;100.00;95537.46;108417;1280;25460;-86
2024/01/01 06:17:56;;;;;;;26.30;17.60;;;;;;;4.99;100.00;95534.10;108208;1281;138309;-85
2024/01/01 06:20:22;;;;;;;27.30;19.80;;;;;;;4.99;100.00;95539.29;108342;1282;22579;-85
2024/01/01 06:22:49;;;;;;;30.40;21.20;;;;;;;4.97;100.00;95546.73;108335;1282;22654;-85
2024/01/01 06:25:17;;;;;;;29.90;22.70;;;;;;;4.97;100.00;95546.38;108501;1284;137969;-86
2024/01/01 06:27:50;;;;;;;28.20;21.20;;;;;;;4.92;100.00;95548.66;108815;1281;22563;-85
2024/01/01 06:30:19;;;;;;;28.30;21.20;;;;;;;4.94;100.00;95554.05;108769;1275;137554;-86
2024/01/01 06:32:57;;;;;;;20.60;14.70;;;;;;;4.92;100.00;95545.92;108809;1277;22536;-86
2024/01/01 06:35:37;;;;;;;;;;;;;;;4.90;100.00;95545.80;108272;1282;138392;-85
2024/01/01 06:38:04;;;;;;;22.30;16.60;;;;;;;4.87;100.00;95542.09;108385;1282;22540;-85
2024/01/01 06:40:31;;;;;;;16.00;11.20;;;;;;;4.84;100.00;95543.66;108252;1278;24412;-85
2024/01/01 06:42:58;;;;;;;15.60;10.40;;;;;;;4.76;100.00;95536.33;108184;1278;138140;-85
2024/01/01 06:45:25;;;;;;;14.70;10.20;;;;;;;4.69;100.00;95535.46;108382;1283;22562;-85
2024/01/01 06:47:52;;;;;;;13.40;9.90;;;;;;;4.66;100.00;95536.89;108285;1283;138558;-85
2024/01/01 06:50:19;;;;;;;14.40;9.90;;;;;;;4.62;100.00;95540.90;108370;1276;22542;-85
2024/01/01 06:52:45;;;;;;;15.40;9.70;;;;;;;4.56;100.00;95545.86;108394;1276;25391;-86
2024/01/01 06:55:12;;;;;;;15.70;10.40;;;;;;;4.49;100.00;95552.18;108313;1278;138460;-85
2024/01/01 06:57:39;;;;;;;14.20;9.50;;;;;;;4.45;100.00;95561.23;108371;1275;22534;-85
2024/01/01 07:00:07;;;;;;;14.80;10.30;;;;;;;4.39;100.00;95563.75;108224;1283;137999;-85
2024/01/01 07:02:34;;;;;;;13.30;9.20;;;;;;;4.35;100.00;95567.48;108400;1278;22850;-85
2024/01/01 07:05:01;;;;;;;11.60;8.10;;;;;;;4.33;100.00;95566.00;108236;1282;138239;-85
2024/01/01 07:07:28;;;;;;;11.90;8.60;;;;;;;4.29;100.00;95572.26;108453;1280;24251;-85
2024/01/01 07:09:57;;;;;;;15.20;10.90;;;;;;;4.24;100.00;95574.45;108441;1277;22575;-85
2024/01/01 07:12:27;;;;;;;14.20;9.80;;;;;;;4.17;100.00;95580.00;108225;1283;138960;-85
2024/01/01 07:14:54;;;;;;;28.70;15.70;;;;;;;4.14;100.00;95582.35;108290;1283;22566;-84
2024/01/01 07:17:20;;;;;;;26.60;15.80;;;;;;;4.13;100.00;95584.19;108223;1278;138427;-84
2024/01/01 07:19:50;;;;;;;19.10;12.20;;;;;;;4.13;100.00;95585.91;108436;1277;26288;-84
2024/01/01 07:22:16;;;;;;;12.70;9.60;;;;;;;4.08;100.00;95586.21;108337;1277;23004;-84
2024/01/01 07:24:43;;;;;;;11.50;8.30;;;;;;;4.01;100.00;95587.04;108248;1278;138105;-85
2024/01/01 07:27:12;;;;;;;8.90;6.60;;;;;;;3.95;100.00;95596.95;108339;1282;22545;-84
2024/01/01 07:29:39;;;;;;;8.70;6.30;;;;;;;3.87;100.00;95599.08;108212;1282;138513;-84
2024/01/01 07:32:07;;;;;;;8.00;6.20;;;;;;;3.81;100.00;95596.51;108335;1283;22524;-85
2024/01/01 07:34:33;;;;;;;7.90;5.40;;;;;;;3.76;100.00;95597.83;108319;1282;24618;-84
2024/01/01 07:37:00;;;;;;;9.80;6.60;;;;;;;3.74;100.00;95604.23;108180;1277;137940;-84
2024/01/01 07:39:29;;;;;;;8.70;6.50;;;;;;;3.75;100.00;95605.81;108333;1278;22549;-84
2024/01/01 07:41:56;;;;;;;14.20;9.70;;;;;;;3.75;100.00;95606.53;108190;1281;138242;-84
2024/01/01 07:44:23;;;;;;;24.00;12.10;;;;;;;3.75;100.00;95600.91;108287;1280;25425;-84
2024/01/01 07:46:49;;;;;;;10.20;7.40;;;;;;;3.75;100.00;95598.34;108253;1277;22949;-84
2024/01/01 07:49:17;;;;;;;15.10;10.40;;;;;;;3.73;100.00;95589.39;108362;1275;137858;-84
2024/01/01 07:51:44;;;;;;;12.50;8.00;;;;;;;3.72;100.00;95594.52;108281;1283;22507;-85
2024/01/01 07:54:10;;;;;;;11.00;7.40;;;;;;;3.69;100.00;95597.54;108229;1282;138177;-85
2024/01/01 07:56:43;;;;;;;10.50;8.20;;;;;;;3.63;100.00;95594.27;108481;1282;22540;-84
2024/01/01 07:59:15;;;;;;;11.60;8.90;;;;;;;3.54;100.00;95596.13;108211;1275;138189;-84
2024/01/01 08:01:41;;;;;;;9.90;6.50;;;;;;;3.52;100.00;95591.41;108319;1284;22114;-84
2024/01/01 08:04:08;;;;;;;11.90;8.30;;;;;;;3.50;100.00;95588.48;108255;1281;25428;-84
2024/01/01 08:06:35;;;;;;;10.90;7.50;;;;;;;3.52;100.00;95586.81;108280;1278;138032;-85
2024/01/01 08:09:04;;;;;;;9.30;6.10;;;;;;;3.50;100.00;95588.32;108405;1277;22539;-84
2024/01/01 08:11:31;;;;;;;9.70;6.00;;;;;;;3.46;100.00;95589.64;108334;1277;138022;-86
2024/01/01 08:13:58;;;;;;;8.60;6.30;;;;;;;3.38;100.00;95589.41;108417;1278;22643;-86
2024/01/01 08:16:25;;;;;;;10.20;6.20;;;;;;;3.28;100.00;95593.12;108338;1283;22756;-86
2024/01/01 08:18:53;;;;;;;7.70;5.60;;;;;;;3.23;100.00;95599.10;108216;1284;138293;-86
2024/01/01 08:21:36;;;;;;;11.70;7.50;;;;;;;3.21;100.00;95598.54;108585;1284;22567;-84
2024/01/01 08:24:06;;;;;;;9.00;6.10;;;;;;;3.10;100.00;95600.55;109074;1282;22618;-85
2024/01/01 08:26:57;;;;;;;8.80;5.70;;;;;;;3.03;100.00;95602.92;109003;1283;22549;-85
2024/01/01 08:29:28;;;;;;;7.10;5.20;;;;;;;2.92;100.00;95598.52;108818;1282;137275;-85
2024/01/01 08:32:05;;;;;;;9.60;6.00;;;;;;;2.84;100.00;95602.40;109313;1277;23452;-85
2024/01/01 08:34:32;;;;;;;8.10;6.00;;;;;;;2.73;100.00;95596.86;109097;1275;22549;-86
2024/01/01 08:36:59;;;;;;;9.90;7.00;;;;;;;2.76;100.00;95602.00;108388;1283;149881;-85
2024/01/01 08:39:26;;;;;;;8.50;6.60;;;;;;;2.76;100.00;95607.29;108337;1282;23185;-87
2024/01/01 08:41:53;;;;;;;10.40;7.00;;;;;;;2.73;100.00;95609.73;108334;1278;138107;-86
2024/01/01 08:44:20;;;;;;;9.40;7.70;;;;;;;2.67;100.00;95614.14;108289;1283;22604;-87
2024/01/01 08:46:46;;;;;;;10.10;6.60;;;;;;;2.62;100.00;95618.16;108534;1277;22520;-86
2024/01/01 08:49:13;;;;;;;10.50;7.70;;;;;;;2.58;100.00;95622.60;108227;1277;138054;-87
2024/01/01 08:51:40;;;;;;;9.10;7.10;;;;;;;2.52;100.00;95629.42;108318;1278;22538;-85
2024/01/01 08:54:07;;;;;;;8.60;6.10;;;;;;;2.46;100.00;95639.88;108221;1282;137803;-86
2024/01/01 08:56:33;;;;;;;8.60;5.70;;;;;;;2.37;100.00;95642.79;108454;1282;22571;-86
2024/01/01 08:59:00;;;;;;;8.40;6.50;;;;;;;2.23;100.00;95649.31;108327;1281;22538;-87
2024/01/01 09:01:27;;;;;;;7.10;5.30;;;;;;;2.13;100.00;95654.43;108301;1281;22555;-87
2024/01/01 09:03:56;;;;;;;9.30;6.60;;;;;;;2.08;100.00;95659.08;108339;1277;22653;-86
2024/01/01 09:06:23;;;;;;;8.40;6.40;;;;;;;2.04;100.00;95659.34;108409;1283;137939;-85
2024/01/01 09:08:49;;;;;;;7.00;6.00;;;;;;;2.02;100.00;95663.80;108356;1282;22543;-86
2024/01/01 09:11:19;;;;;;;10.00;7.80;;;;;;;1.99;100.00;95660.89;108287;1271;137989;-87
2024/01/01 09:13:46;;;;;;;17.90;12.60;;;;;;;1.97;100.00;95665.78;108447;1282;22817;-85
2024/01/01 09:16:13;;;;;;;10.40;8.20;;;;;;;1.97;100.00;95657.65;108433;1282;22584;-85
2024/01/01 09:18:39;;;;;;;9.80;8.30;;;;;;;1.94;100.00;95658.56;108244;1283;138090;-85
2024/01/01 09:21:13;;;;;;;11.60;8.60;;;;;;;1.92;100.00;95656.69;108176;1282;22534;-86
2024/01/01 09:23:40;;;;;;;10.60;9.50;;;;;;;1.89;100.00;95655.67;108228;1283;138541;-84
2024/01/01 09:26:06;;;;;;;9.80;8.20;;;;;;;1.85;100.00;95655.03;108478;1279;22687;-84
2024/01/01 09:28:33;;;;;;;13.50;9.60;;;;;;;1.83;100.00;95656.77;108757;1283;22546;-83
2024/01/01 09:31:20;;;;;;;17.90;13.90;;;;;;;1.76;100.00;95653.65;108938;1283;137455;-84
2024/01/01 09:34:03;;;;;;;16.00;12.50;;;;;;;1.75;100.00;95653.52;109332;1282;22562;-86
2024/01/01 09:36:43;;;;;;;16.50;13.20;;;;;;;1.77;100.00;95651.65;109072;1275;138178;-86
2024/01/01 09:39:10;;;;;;;13.90;11.40;;;;;;;1.77;100.00;95648.02;108619;1275;22540;-85
2024/01/01 09:41:40;;;;;;;11.90;7.80;;;;;;;1.71;100.00;95641.13;108291;1282;138377;-85
2024/01/01 09:44:09;;;;;;;27.60;11.70;;;;;;;1.64;100.00;95640.09;108348;1284;22582;-85
2024/01/01 09:46:36;;;;;;;129.60;62.50;;;;;;;1.59;100.00;95640.09;108307;1281;22514;-85
2024/01/01 09:49:03;;;;;;;64.80;34.70;;;;;;;1.59;100.00;95638.59;108321;1280;138668;-86
2024/01/01 09:51:31;;;;;;;43.20;25.70;;;;;;;1.58;100.00;95636.02;108362;1275;23361;-85
2024/01/01 09:54:08;;;;;;;31.50;17.20;;;;;;;1.58;100.00;95637.55;108513;1282;138670;-85
2024/01/01 09:56:35;;;;;;;67.00;26.80;;;;;;;1.53;100.00;95628.84;108722;1275;25493;-85
2024/01/01 09:59:02;;;;;;;18.20;9.80;;;;;;;1.54;100.00;95635.28;108464;1282;25353;-85
2024/01/01 10:01:31;;;;;;;36.40;24.90;;;;;;;1.51;100.00;95634.02;108204;1278;138111;-86
2024/01/01 10:04:07;;;;;;;48.50;21.40;;;;;;;1.48;100.00;95633.23;108249;1277;26469;-86
2024/01/01 10:06:55;;;;;;;21.30;12.40;;;;;;;1.47;100.00;95637.64;109539;1282;137154;-85
2024/01/01 10:09:24;;;;;;;19.50;11.00;;;;;;;1.44;100.00;95635.08;109447;1282;22494;-87
2024/01/01 10:11:55;;;;;;;16.00;9.20;;;;;;;1.44;100.00;95637.53;109384;1278;137434;-87
2024/01/01 10:14:22;;;;;;;21.60;11.80;;;;;;;1.45;100.00;95632.84;108914;1283;22557;-85
2024/01/01 10:16:49;;;;;;;17.90;9.60;;;;;;;1.48;100.00;95628.42;109140;1283;22764;-86
2024/01/01 10:19:16;;;;;;;20.20;13.80;;;;;;;1.48;100.00;95622.16;109214;1272;138140;-86
2024/01/01 10:21:43;;;;;;;17.00;14.90;;;;;;;1.46;100.00;95621.48;109367;1283;22840;-85
2024/01/01 10:24:21;;;;;;;25.30;14.00;;;;;;;1.45;100.00;95629.77;108684;1283;138213;-87
2024/01/01 10:26:48;;;;;;;23.50;12.80;;;;;;;1.47;100.00;95637.28;108320;1283;22543;-87
2024/01/01 10:29:16;;;;;;;13.40;7.90;;;;;;;1.46;100.00;95640.27;108234;1278;138389;-86
2024/01/01 10:31:45;;;;;;;13.70;9.10;;;;;;;1.40;100.00;95636.20;108384;1276;22559;-87
2024/01/01 10:34:12;;;;;;;11.80;8.10;;;;;;;1.38;100.00;95640.19;108246;1277;25442;-87
2024/01/01 10:36:41;;;;;;;12.90;8.40;;;;;;;1.34;100.00;95638.47;108186;1281;138199;-86
2024/01/01 10:39:10;;;;;;;13.20;9.90;;;;;;;1.33;100.00;95635.33;108280;1276;25276;-85
2024/01/01 10:41:38;;;;;;;16.50;10.20;;;;;;;1.34;100.00;95635.64;108220;1283;138376;-85
2024/01/01 10:44:09;;;;;;;15.00;9.60;;;;;;;1.34;100.00;95635.61;108708;1282;22607;-85
2024/01/01 10:46:37;;;;;;;13.80;9.40;;;;;;;1.35;100.00;95639.27;108272;1284;22643;-86
2024/01/01 10:49:06;;;;;;;8.20;6.50;;;;;;;1.35;100.00;95635.52;108145;1283;138193;-84
2024/01/01 10:51:42;;;;;;;10.90;9.60;;;;;;;1.32;100.00;95632.52;108638;1277;25384;-86
2024/01/01 10:54:46;;;;;;;8.30;7.40;;;;;;;1.33;100.00;95625.60;108231;1280;138069;-85
2024/01/01 10:57:29;;;;;;;7.70;6.00;;;;;;;1.34;100.00;95624.20;108385;1278;22575;-86
2024/01/01 11:00:00;;;;;;;6.20;5.00;;;;;;;1.34;100.00;95624.16;108235;1281;139348;-87
2024/01/01 11:02:27;;;;;;;7.80;6.90;;;;;;;1.36;100.00;95625.55;108323;1284;22874;-87
2024/01/01 11:05:08;;;;;;;7.30;6.20;;;;;;;1.34;100.00;95622.12;108283;1284;22570;-87
2024/01/01 11:07:54;;;;;;;8.20;7.40;;;;;;;1.33;100.00;95621.69;108395;1281;22577;-87
2024/01/01 11:10:35;;;;;;;16.70;15.00;;;;;;;1.37;100.00;95615.20;108283;1281;22531;-86
2024/01/01 11:13:03;;;;;;;30.00;20.80;;;;;;;1.37;100.00;95611.37;108184;1281;138308;-86
2024/01/01 11:15:40;;;;;;;15.70;13.40;;;;;;;1.37;100.00;95606.50;108571;1283;22544;-85
2024/01/01 11:18:20;;;;;;;15.60;13.90;;;;;;;1.38;100.00;95608.20;108248;1283;138160;-86
2024/01/01 11:20:51;;;;;;;12.50;9.90;;;;;;;1.42;100.00;95606.31;108588;1282;22523;-87
2024/01/01 11:23:41;;;;;;;8.20;6.70;;;;;;;1.43;100.00;95602.13;108127;1275;219175;-87
2024/01/01 11:26:26;;;;;;;10.90;8.00;;;;;;;1.45;100.00;95599.21;108435;1278;22575;-86
2024/01/01 11:28:55;;;;;;;25.10;16.10;;;;;;;1.46;100.00;95598.61;108361;1274;22554;-87
2024/01/01 11:31:22;;;;;;;29.50;25.10;;;;;;;1.47;100.00;95599.70;108146;1282;138502;-86
2024/01/01 11:34:05;;;;;;;9.20;6.50;;;;;;;1.49;100.00;95595.23;108451;1279;22560;-86
2024/01/01 11:36:31;;;;;;;;;;;;;;;1.53;100.00;95593.03;108302;1277;137995;-86